Time;durP1;ratioP1;P1;durP2;ratioP2;P2;SDS_P1;SDS_P2;PMS_P1;PMS_P2;Temp;Humidity;BMP_temperature;BMP_pressure;BME280_temperature;BME280_humidity;BME280_pressure;Samples;Min_cycle;Max_cycle;Signal;HPM_P1;HPM_P2
2023/07/01 00:02:52;;;;;;;;;;;;;;;;;;6204681;28;19937;-62
2023/07/01 00:05:52;;;;;;;;;;;;;;;;;;6207310;28;19914;-64
2023/07/01 00:08:55;;;;;;;;;;;;;;;;;;6208780;28;19985;-63
2023/07/01 00:11:55;;;;;;;;;;;;;;;;;;6205604;28;20469;-65
2023/07/01 00:14:56;;;;;;;;;;;;;;;;;;6209027;28;19913;-64
2023/07/01 00:17:56;;;;;;;;;;;;;;;;;;6205969;28;19939;-65
2023/07/01 00:20:56;;;;;;;;;;;;;;;;;;6208107;28;19925;-65
2023/07/01 00:23:56;;;;;;;;;;;;;;;;;;6208300;28;20196;-64
2023/07/01 00:26:56;;;;;;;;;;;;;;;;;;6207368;28;19960;-65
2023/07/01 00:29:56;;;;;;;;;;;;;;;;;;6207273;28;20005;-64
2023/07/01 00:32:56;;;;;;;;;;;;;;;;;;6209828;28;19929;-63
2023/07/01 00:35:56;;;;;;;;;;;;;;;;;;6213171;28;20239;-66
2023/07/01 00:38:57;;;;;;;;;;;;;;;;;;6205673;28;19962;-66
2023/07/01 00:41:57;;;;;;;;;;;;;;;;;;6203772;28;19983;-66
2023/07/01 00:44:57;;;;;;;;;;;;;;;;;;6203598;28;20461;-65
2023/07/01 00:47:57;;;;;;;;;;;;;;;;;;6206982;28;19933;-67
2023/07/01 00:50:57;;;;;;;;;;;;;;;;;;6205616;28;19927;-64
2023/07/01 00:53:57;;;;;;;;;;;;;;;;;;6210169;28;19925;-65
2023/07/01 00:56:59;;;;;;;;;;;;;;;;;;6221393;28;19914;-64
2023/07/01 00:59:59;;;;;;;;;;;;;;;;;;6209706;28;19917;-66
2023/07/01 01:02:59;;;;;;;;;;;;;;;;;;6214075;28;20346;-65
2023/07/01 01:06:00;;;;;;;;;;;;;;;;;;6219536;28;19910;-64
2023/07/01 01:09:00;;;;;;;;;;;;;;;;;;6213831;28;19914;-64
2023/07/01 01:12:00;;;;;;;;;;;;;;;;;;6208207;28;20328;-64
2023/07/01 01:15:01;;;;;;;;;;;;;;;;;;6211090;28;19913;-65
2023/07/01 01:18:02;;;;;;;;;;;;;;;;;;6213651;28;20048;-65
2023/07/01 01:21:02;;;;;;;;;;;;;;;;;;6215509;28;19914;-65
2023/07/01 01:24:03;;;;;;;;;;;;;;;;;;6215365;28;19916;-64
2023/07/01 01:27:04;;;;;;;;;;;;;;;;;;6211407;28;19956;-64
2023/07/01 01:30:06;;;;;;;;;;;;;;;;;;6212287;28;20406;-66
2023/07/01 01:33:06;;;;;;;;;;;;;;;;;;6212530;28;20021;-62
2023/07/01 01:36:06;;;;;;;;;;;;;;;;;;6215169;28;19918;-63
2023/07/01 01:39:06;;;;;;;;;;;;;;;;;;6218562;28;20436;-63
2023/07/01 01:42:07;;;;;;;;;;;;;;;;;;6214579;28;19960;-64
2023/07/01 01:45:07;;;;;;;;;;;;;;;;;;6214714;28;19917;-66
2023/07/01 01:48:07;;;;;;;;;;;;;;;;;;6211807;28;19921;-65
2023/07/01 01:51:07;;;;;;;;;;;;;;;;;;6217957;28;20008;-63
2023/07/01 01:54:07;;;;;;;;;;;;;;;;;;6204227;28;20020;-66
2023/07/01 01:57:07;;;;;;;;;;;;;;;;;;6213114;28;19966;-65
2023/07/01 02:00:08;;;;;;;;;;;;;;;;;;6213108;28;19929;-65
2023/07/01 02:03:08;;;;;;;;;;;;;;;;;;6208091;28;20065;-65
2023/07/01 02:06:08;;;;;;;;;;;;;;;;;;6210793;28;19914;-65
2023/07/01 02:09:08;;;;;;;;;;;;;;;;;;6208054;28;19914;-65
2023/07/01 02:12:08;;;;;;;;;;;;;;;;;;6207512;28;19944;-66
2023/07/01 02:15:08;;;;;;;;;;;;;;;;;;6211612;28;20285;-64
2023/07/01 02:18:09;;;;;;;;;;;;;;;;;;6216344;28;19921;-64
2023/07/01 02:21:09;;;;;;;;;;;;;;;;;;6215125;28;19944;-65
2023/07/01 02:24:09;;;;;;;;;;;;;;;;;;6213378;28;19948;-66
2023/07/01 02:27:09;;;;;;;;;;;;;;;;;;6211997;28;19921;-67
2023/07/01 02:30:09;;;;;;;;;;;;;;;;;;6208540;28;20008;-67
2023/07/01 02:33:09;;;;;;;;;;;;;;;;;;6213312;28;19939;-66
2023/07/01 02:36:09;;;;;;;;;;;;;;;;;;6211463;28;20260;-66
2023/07/01 02:39:10;;;;;;;;;;;;;;;;;;6209548;28;19917;-66
2023/07/01 02:42:10;;;;;;;;;;;;;;;;;;6204838;28;19916;-66
2023/07/01 02:45:10;;;;;;;;;;;;;;;;;;6210726;28;19929;-66
2023/07/01 02:48:10;;;;;;;;;;;;;;;;;;6213349;28;20416;-65
2023/07/01 02:51:10;;;;;;;;;;;;;;;;;;6208539;28;19940;-66
2023/07/01 02:54:10;;;;;;;;;;;;;;;;;;6209753;28;19921;-67
2023/07/01 02:57:10;;;;;;;;;;;;;;;;;;6208209;28;20251;-66
2023/07/01 03:00:11;;;;;;;;;;;;;;;;;;6205587;28;20367;-66
2023/07/01 03:03:11;;;;;;;;;;;;;;;;;;6217855;28;19928;-66
2023/07/01 03:06:11;;;;;;;;;;;;;;;;;;6212536;28;20275;-67
2023/07/01 03:09:11;;;;;;;;;;;;;;;;;;6205282;28;19929;-67
2023/07/01 03:12:11;;;;;;;;;;;;;;;;;;6210265;28;19928;-65
2023/07/01 03:15:12;;;;;;;;;;;;;;;;;;6213347;28;19913;-65
2023/07/01 03:18:12;;;;;;;;;;;;;;;;;;6213851;28;19913;-66
2023/07/01 03:21:12;;;;;;;;;;;;;;;;;;6209242;28;19925;-65
2023/07/01 03:24:12;;;;;;;;;;;;;;;;;;6215070;28;19960;-66
2023/07/01 03:27:12;;;;;;;;;;;;;;;;;;6213002;28;19909;-68
2023/07/01 03:30:13;;;;;;;;;;;;;;;;;;6211589;28;19976;-65
2023/07/01 03:33:15;;;;;;;;;;;;;;;;;;6216916;28;19918;-65
2023/07/01 03:36:16;;;;;;;;;;;;;;;;;;6208533;28;19975;-66
2023/07/01 03:39:18;;;;;;;;;;;;;;;;;;6210413;28;20214;-66
2023/07/01 03:42:18;;;;;;;;;;;;;;;;;;6216161;28;19913;-66
2023/07/01 03:45:18;;;;;;;;;;;;;;;;;;6212270;28;19921;-66
2023/07/01 03:48:18;;;;;;;;;;;;;;;;;;6212043;28;20443;-66
2023/07/01 03:51:18;;;;;;;;;;;;;;;;;;6205737;28;19913;-65
2023/07/01 03:54:18;;;;;;;;;;;;;;;;;;6214791;28;19913;-66
2023/07/01 03:57:18;;;;;;;;;;;;;;;;;;6211442;28;19913;-65
2023/07/01 04:00:19;;;;;;;;;;;;;;;;;;6205382;28;20289;-67
2023/07/01 04:03:19;;;;;;;;;;;;;;;;;;6205550;28;20088;-66
2023/07/01 04:06:19;;;;;;;;;;;;;;;;;;6205690;28;19944;-66
2023/07/01 04:09:19;;;;;;;;;;;;;;;;;;6218536;28;20009;-69
2023/07/01 04:12:19;;;;;;;;;;;;;;;;;;6228230;28;19993;-67
2023/07/01 04:15:19;;;;;;;;;;;;;;;;;;6230077;28;20382;-67
2023/07/01 04:18:20;;;;;;;;;;;;;;;;;;6229618;28;20271;-65
2023/07/01 04:21:21;;;;;;;;;;;;;;;;;;6224745;28;19913;-66
2023/07/01 04:24:21;;;;;;;;;;;;;;;;;;6214102;28;19989;-67
2023/07/01 04:27:21;;;;;;;;;;;;;;;;;;6216611;28;19924;-66
2023/07/01 04:30:21;;;;;;;;;;;;;;;;;;6216060;28;20009;-67
2023/07/01 04:33:22;;;;;;;;;;;;;;;;;;6216049;28;19924;-66
2023/07/01 04:36:22;;;;;;;;;;;;;;;;;;6210371;28;19917;-66
2023/07/01 04:39:22;;;;;;;;;;;;;;;;;;6213193;28;19992;-67
2023/07/01 04:42:23;;;;;;;;;;;;;;;;;;6208609;28;20013;-67
2023/07/01 04:45:23;;;;;;;;;;;;;;;;;;6209989;28;19957;-66
2023/07/01 04:48:23;;;;;;;;;;;;;;;;;;6213399;28;19960;-66
2023/07/01 04:51:23;;;;;;;;;;;;;;;;;;6216012;28;19967;-65
2023/07/01 04:54:23;;;;;;;;;;;;;;;;;;6218466;28;19984;-66
2023/07/01 04:57:23;;;;;;;;;;;;;;;;;;6210431;28;19999;-66
2023/07/01 05:00:23;;;;;;;;;;;;;;;;;;6213410;28;19924;-66
2023/07/01 05:03:23;;;;;;;;;;;;;;;;;;6211513;28;19914;-65
2023/07/01 05:06:24;;;;;;;;;;;;;;;;;;6215482;28;20274;-66
2023/07/01 05:09:24;;;;;;;;;;;;;;;;;;6213707;28;20228;-66
2023/07/01 05:12:24;;;;;;;;;;;;;;;;;;6208597;28;20046;-67
2023/07/01 05:15:24;;;;;;;;;;;;;;;;;;6213176;28;19909;-66
2023/07/01 05:18:24;;;;;;;;;;;;;;;;;;6213023;28;19960;-66
2023/07/01 05:21:24;;;;;;;;;;;;;;;;;;6220862;28;19964;-65
2023/07/01 05:24:24;;;;;;;;;;;;;;;;;;6216459;28;19937;-67
2023/07/01 05:27:24;;;;;;;;;;;;;;;;;;6216649;28;20008;-67
2023/07/01 05:30:24;;;;;;;;;;;;;;;;;;6212077;28;19920;-67
2023/07/01 05:33:25;;;;;;;;;;;;;;;;;;6207019;28;20305;-67
2023/07/01 05:36:25;;;;;;;;;;;;;;;;;;6208633;28;20309;-67
2023/07/01 05:39:25;;;;;;;;;;;;;;;;;;6211866;28;20001;-66
2023/07/01 05:42:25;;;;;;;;;;;;;;;;;;6212914;28;19936;-65
2023/07/01 05:45:25;;;;;;;;;;;;;;;;;;6212635;28;20142;-67
2023/07/01 05:48:25;;;;;;;;;;;;;;;;;;6209015;28;19953;-66
2023/07/01 05:51:25;;;;;;;;;;;;;;;;;;6208491;28;20014;-67
2023/07/01 05:54:25;;;;;;;;;;;;;;;;;;6215744;28;19921;-66
2023/07/01 05:57:25;;;;;;;;;;;;;;;;;;6215215;28;20008;-67
2023/07/01 06:00:26;;;;;;;;;;;;;;;;;;6212921;28;19956;-66
2023/07/01 06:03:26;;;;;;;;;;;;;;;;;;6215731;28;19913;-67
2023/07/01 06:06:26;;;;;;;;;;;;;;;;;;6214097;28;20034;-67
2023/07/01 06:09:26;;;;;;;;;;;;;;;;;;6215992;28;19913;-66
2023/07/01 06:12:26;;;;;;;;;;;;;;;;;;6216964;28;19917;-66
2023/07/01 06:15:26;;;;;;;;;;;;;;;;;;6212953;28;20437;-65
2023/07/01 06:18:26;;;;;;;;;;;;;;;;;;6209199;28;19917;-66
2023/07/01 06:21:26;;;;;;;;;;;;;;;;;;6209070;28;20294;-65
2023/07/01 06:24:26;;;;;;;;;;;;;;;;;;6210950;28;20623;-67
2023/07/01 06:27:27;;;;;;;;;;;;;;;;;;6209638;28;19921;-66
2023/07/01 06:30:27;;;;;;;;;;;;;;;;;;6209409;28;19924;-67
2023/07/01 06:33:27;;;;;;;;;;;;;;;;;;6214026;28;19921;-67
2023/07/01 06:36:27;;;;;;;;;;;;;;;;;;6218978;28;20293;-67
2023/07/01 06:39:27;;;;;;;;;;;;;;;;;;6218027;28;19924;-67
2023/07/01 06:42:28;;;;;;;;;;;;;;;;;;6209993;28;20525;-66
2023/07/01 06:45:28;;;;;;;;;;;;;;;;;;6213824;28;20349;-67
2023/07/01 06:48:28;;;;;;;;;;;;;;;;;;6212985;28;20355;-67
2023/07/01 06:51:28;;;;;;;;;;;;;;;;;;5865042;28;10000479;-69
2023/07/01 06:54:28;;;;;;;;;;;;;;;;;;6210329;28;19925;-68
2023/07/01 06:57:30;;;;;;;;;;;;;;;;;;6207121;28;20059;-68
2023/07/01 07:00:30;;;;;;;;;;;;;;;;;;6212020;28;20500;-68
2023/07/01 07:03:30;;;;;;;;;;;;;;;;;;6214707;28;19957;-68
2023/07/01 07:06:30;;;;;;;;;;;;;;;;;;6212557;28;20000;-68
2023/07/01 07:09:30;;;;;;;;;;;;;;;;;;6209694;28;20004;-68
2023/07/01 07:12:30;;;;;;;;;;;;;;;;;;6206884;28;20444;-68
2023/07/01 07:15:31;;;;;;;;;;;;;;;;;;6206593;28;19921;-68
2023/07/01 07:18:31;;;;;;;;;;;;;;;;;;6213570;28;19997;-66
2023/07/01 07:21:31;;;;;;;;;;;;;;;;;;6213858;28;19918;-66
2023/07/01 07:24:31;;;;;;;;;;;;;;;;;;6206304;28;20306;-67
2023/07/01 07:27:31;;;;;;;;;;;;;;;;;;6206605;28;19914;-67
2023/07/01 07:30:32;;;;;;;;;;;;;;;;;;6204932;28;20366;-69
2023/07/01 07:33:32;;;;;;;;;;;;;;;;;;6208059;28;20699;-66
2023/07/01 07:36:32;;;;;;;;;;;;;;;;;;6203166;28;19960;-66
2023/07/01 07:39:32;;;;;;;;;;;;;;;;;;6200622;28;20070;-64
2023/07/01 07:42:32;;;;;;;;;;;;;;;;;;6213483;28;19921;-66
2023/07/01 07:45:32;;;;;;;;;;;;;;;;;;6213247;28;19927;-67
2023/07/01 07:48:32;;;;;;;;;;;;;;;;;;6215408;28;19914;-65
2023/07/01 07:51:33;;;;;;;;;;;;;;;;;;6212335;28;20063;-62
2023/07/01 07:54:33;;;;;;;;;;;;;;;;;;6207760;28;19917;-64
2023/07/01 07:57:33;;;;;;;;;;;;;;;;;;6208691;28;19971;-65
2023/07/01 08:00:33;;;;;;;;;;;;;;;;;;6203788;28;20216;-65
2023/07/01 08:03:33;;;;;;;;;;;;;;;;;;6211703;28;19996;-65
2023/07/01 08:06:33;;;;;;;;;;;;;;;;;;6209374;28;21761;-65
2023/07/01 08:09:33;;;;;;;;;;;;;;;;;;6207952;28;19918;-65
2023/07/01 08:12:34;;;;;;;;;;;;;;;;;;6206899;28;20676;-66
2023/07/01 08:15:34;;;;;;;;;;;;;;;;;;6201547;28;19925;-66
2023/07/01 08:18:35;;;;;;;;;;;;;;;;;;6203170;28;19924;-71
2023/07/01 08:21:37;;;;;;;;;;;;;;;;;;6196426;28;19922;-71
2023/07/01 08:24:37;;;;;;;;;;;;;;;;;;6206711;28;19975;-71
2023/07/01 08:27:37;;;;;;;;;;;;;;;;;;6205315;28;20044;-71
2023/07/01 08:30:38;;;;;;;;;;;;;;;;;;6201841;28;20353;-72
2023/07/01 08:33:38;;;;;;;;;;;;;;;;;;6196033;28;19976;-71
2023/07/01 08:36:38;;;;;;;;;;;;;;;;;;6202136;28;20326;-72
2023/07/01 08:39:38;;;;;;;;;;;;;;;;;;6202274;28;20071;-72
2023/07/01 08:42:38;;;;;;;;;;;;;;;;;;6204289;28;19975;-72
2023/07/01 08:45:38;;;;;;;;;;;;;;;;;;6206369;28;20390;-70
2023/07/01 08:48:39;;;;;;;;;;;;;;;;;;6209721;28;19914;-71
2023/07/01 08:51:39;;;;;;;;;;;;;;;;;;6211290;28;19917;-72
2023/07/01 08:54:39;;;;;;;;;;;;;;;;;;6204898;28;19932;-71
2023/07/01 08:57:39;;;;;;;;;;;;;;;;;;6200724;28;21348;-71
2023/07/01 09:00:39;;;;;;;;;;;;;;;;;;6202559;28;20205;-70
2023/07/01 09:03:39;;;;;;;;;;;;;;;;;;6203234;28;19957;-71
2023/07/01 09:06:39;;;;;;;;;;;;;;;;;;6195843;28;20306;-71
2023/07/01 09:09:39;;;;;;;;;;;;;;;;;;6200777;28;20402;-70
2023/07/01 09:12:40;;;;;;;;;;;;;;;;;;6206004;28;19932;-70
2023/07/01 09:15:40;;;;;;;;;;;;;;;;;;6205026;28;19929;-70
2023/07/01 09:18:43;;;;;;;;;;;;;;;;;;6203104;28;20448;-71
2023/07/01 09:21:43;;;;;;;;;;;;;;;;;;6207598;28;19913;-69
2023/07/01 09:24:43;;;;;;;;;;;;;;;;;;6205059;28;20380;-68
2023/07/01 09:27:47;;;;;;;;;;;;;;;;;;6206998;28;20004;-68
2023/07/01 09:30:47;;;;;;;;;;;;;;;;;;6204746;28;20291;-68
2023/07/01 09:33:47;;;;;;;;;;;;;;;;;;6202254;28;20385;-68
2023/07/01 09:36:47;;;;;;;;;;;;;;;;;;6209006;28;19976;-68
2023/07/01 09:39:47;;;;;;;;;;;;;;;;;;6204105;28;19918;-69
2023/07/01 09:42:47;;;;;;;;;;;;;;;;;;6200490;28;19917;-70
2023/07/01 09:45:47;;;;;;;;;;;;;;;;;;6212110;28;19928;-68
2023/07/01 09:48:47;;;;;;;;;;;;;;;;;;6209532;28;19909;-68
2023/07/01 09:51:48;;;;;;;;;;;;;;;;;;6206638;28;20271;-70
2023/07/01 09:54:48;;;;;;;;;;;;;;;;;;6199153;28;19921;-69
2023/07/01 09:57:48;;;;;;;;;;;;;;;;;;6204612;28;19921;-71
2023/07/01 10:00:48;;;;;;;;;;;;;;;;;;6204067;28;19921;-69
2023/07/01 10:03:48;;;;;;;;;;;;;;;;;;6204432;28;19921;-70
2023/07/01 10:06:49;;;;;;;;;;;;;;;;;;6206729;28;19924;-69
2023/07/01 10:09:51;;;;;;;;;;;;;;;;;;6201910;28;20330;-66
2023/07/01 10:12:51;;;;;;;;;;;;;;;;;;6215810;28;20475;-66
2023/07/01 10:15:51;;;;;;;;;;;;;;;;;;6208144;28;19957;-72
2023/07/01 10:18:51;;;;;;;;;;;;;;;;;;6207297;28;19913;-70
2023/07/01 10:21:51;;;;;;;;;;;;;;;;;;6205256;28;19913;-70
2023/07/01 10:24:51;;;;;;;;;;;;;;;;;;6188864;28;20003;-70
2023/07/01 10:27:52;;;;;;;;;;;;;;;;;;6178125;28;19921;-72
2023/07/01 10:30:52;;;;;;;;;;;;;;;;;;6193566;28;19984;-69
2023/07/01 10:33:52;;;;;;;;;;;;;;;;;;6207735;28;19929;-71
2023/07/01 10:36:53;;;;;;;;;;;;;;;;;;6201755;28;20055;-72
2023/07/01 10:39:53;;;;;;;;;;;;;;;;;;6201780;28;19917;-71
2023/07/01 10:42:53;;;;;;;;;;;;;;;;;;6198775;28;19921;-71
2023/07/01 10:45:53;;;;;;;;;;;;;;;;;;6200691;28;19935;-70
2023/07/01 10:48:53;;;;;;;;;;;;;;;;;;6212523;28;19917;-72
2023/07/01 10:51:53;;;;;;;;;;;;;;;;;;6212016;28;20335;-72
2023/07/01 10:54:53;;;;;;;;;;;;;;;;;;6209841;28;19921;-71
2023/07/01 10:57:54;;;;;;;;;;;;;;;;;;6213193;28;20028;-71
2023/07/01 11:00:54;;;;;;;;;;;;;;;;;;6199302;28;20422;-72
2023/07/01 11:03:54;;;;;;;;;;;;;;;;;;6200885;28;20279;-69
2023/07/01 11:06:54;;;;;;;;;;;;;;;;;;6204746;28;19917;-72
2023/07/01 11:09:54;;;;;;;;;;;;;;;;;;6196797;28;19956;-70
2023/07/01 11:12:54;;;;;;;;;;;;;;;;;;6203061;28;19921;-72
2023/07/01 11:15:55;;;;;;;;;;;;;;;;;;6198105;28;19949;-70
2023/07/01 11:18:55;;;;;;;;;;;;;;;;;;6199835;28;20468;-71
2023/07/01 11:21:55;;;;;;;;;;;;;;;;;;6200489;28;19917;-72
2023/07/01 11:24:55;;;;;;;;;;;;;;;;;;6196985;28;19918;-69
2023/07/01 11:27:55;;;;;;;;;;;;;;;;;;6202761;28;19926;-70
2023/07/01 11:30:55;;;;;;;;;;;;;;;;;;6211093;28;19948;-69
2023/07/01 11:33:55;;;;;;;;;;;;;;;;;;6204615;28;20380;-71
2023/07/01 11:36:56;;;;;;;;;;;;;;;;;;6198421;28;19922;-71
2023/07/01 11:39:56;;;;;;;;;;;;;;;;;;6202032;28;19917;-68
2023/07/01 11:42:56;;;;;;;;;;;;;;;;;;6201210;28;19921;-69
2023/07/01 11:45:57;;;;;;;;;;;;;;;;;;6205376;28;20056;-67
2023/07/01 11:48:57;;;;;;;;;;;;;;;;;;6205907;28;19917;-69
2023/07/01 11:51:57;;;;;;;;;;;;;;;;;;6203673;28;19964;-68
2023/07/01 11:54:57;;;;;;;;;;;;;;;;;;6198037;28;19928;-68
2023/07/01 11:57:57;;;;;;;;;;;;;;;;;;6199261;28;19921;-68
2023/07/01 12:00:57;;;;;;;;;;;;;;;;;;6199225;28;19936;-70
2023/07/01 12:03:57;;;;;;;;;;;;;;;;;;6199448;28;19979;-69
2023/07/01 12:06:57;;;;;;;;;;;;;;;;;;6205294;28;19918;-69
2023/07/01 12:09:58;;;;;;;;;;;;;;;;;;6202042;28;21490;-69
2023/07/01 12:12:58;;;;;;;;;;;;;;;;;;6201188;28;19944;-72
2023/07/01 12:15:59;;;;;;;;;;;;;;;;;;6202823;28;19959;-70
2023/07/01 12:18:59;;;;;;;;;;;;;;;;;;6199289;28;19924;-71
2023/07/01 12:21:59;;;;;;;;;;;;;;;;;;6207544;28;20374;-71
2023/07/01 12:24:59;;;;;;;;;;;;;;;;;;6200722;28;19913;-70
2023/07/01 12:28:00;;;;;;;;;;;;;;;;;;6203199;28;19917;-69
2023/07/01 12:31:00;;;;;;;;;;;;;;;;;;6206490;28;19921;-70
2023/07/01 12:34:00;;;;;;;;;;;;;;;;;;6201992;28;19936;-69
2023/07/01 12:37:00;;;;;;;;;;;;;;;;;;5513065;28;10000874;-69
2023/07/01 12:40:03;;;;;;;;;;;;;;;;;;6215425;28;19925;-71
2023/07/01 12:43:04;;;;;;;;;;;;;;;;;;6213112;28;19922;-71
2023/07/01 12:46:04;;;;;;;;;;;;;;;;;;6219129;28;19929;-71
2023/07/01 12:49:04;;;;;;;;;;;;;;;;;;6219739;28;20338;-71
2023/07/01 12:52:04;;;;;;;;;;;;;;;;;;6219316;28;19993;-70
2023/07/01 12:55:04;;;;;;;;;;;;;;;;;;6217648;28;20333;-72
2023/07/01 12:58:04;;;;;;;;;;;;;;;;;;6218749;28;20329;-71
2023/07/01 13:01:04;;;;;;;;;;;;;;;;;;6229035;28;19917;-71
2023/07/01 13:04:04;;;;;;;;;;;;;;;;;;6228186;28;19959;-71
2023/07/01 13:07:05;;;;;;;;;;;;;;;;;;6213899;28;19909;-71
2023/07/01 13:10:05;;;;;;;;;;;;;;;;;;6209847;28;19921;-71
2023/07/01 13:13:05;;;;;;;;;;;;;;;;;;6214701;28;19980;-69
2023/07/01 13:16:05;;;;;;;;;;;;;;;;;;6215667;28;19929;-71
2023/07/01 13:19:05;;;;;;;;;;;;;;;;;;6216551;28;19909;-69
2023/07/01 13:22:05;;;;;;;;;;;;;;;;;;6214793;28;19918;-71
2023/07/01 13:25:05;;;;;;;;;;;;;;;;;;6214549;28;20009;-71
2023/07/01 13:28:06;;;;;;;;;;;;;;;;;;6213895;28;19992;-70
2023/07/01 13:31:06;;;;;;;;;;;;;;;;;;6218600;28;20064;-71
2023/07/01 13:34:06;;;;;;;;;;;;;;;;;;6215349;28;19921;-69
2023/07/01 13:37:06;;;;;;;;;;;;;;;;;;6216067;28;19909;-70
2023/07/01 13:40:07;;;;;;;;;;;;;;;;;;6215611;28;19913;-71
2023/07/01 13:43:07;;;;;;;;;;;;;;;;;;6211807;28;19909;-71
2023/07/01 13:46:07;;;;;;;;;;;;;;;;;;6217499;28;20337;-71
2023/07/01 13:49:07;;;;;;;;;;;;;;;;;;6218457;28;19993;-72
2023/07/01 13:52:07;;;;;;;;;;;;;;;;;;6211684;28;20004;-71
2023/07/01 13:55:07;;;;;;;;;;;;;;;;;;6219059;28;19924;-70
2023/07/01 13:58:08;;;;;;;;;;;;;;;;;;6217924;28;19997;-71
2023/07/01 14:01:08;;;;;;;;;;;;;;;;;;6212616;28;19977;-71
2023/07/01 14:04:08;;;;;;;;;;;;;;;;;;6238486;28;19913;-72
2023/07/01 14:07:08;;;;;;;;;;;;;;;;;;6235988;28;19913;-72
2023/07/01 14:10:09;;;;;;;;;;;;;;;;;;6234877;28;19980;-72
2023/07/01 14:13:09;;;;;;;;;;;;;;;;;;6229034;28;19964;-71
2023/07/01 14:16:09;;;;;;;;;;;;;;;;;;6220922;28;19909;-70
2023/07/01 14:19:10;;;;;;;;;;;;;;;;;;6230415;28;19921;-71
2023/07/01 14:22:11;;;;;;;;;;;;;;;;;;6227546;28;19910;-69
2023/07/01 14:25:11;;;;;;;;;;;;;;;;;;6221017;28;19959;-71
2023/07/01 14:28:11;;;;;;;;;;;;;;;;;;6222252;28;19925;-71
2023/07/01 14:31:11;;;;;;;;;;;;;;;;;;6209985;28;19910;-70
2023/07/01 14:34:11;;;;;;;;;;;;;;;;;;6223936;28;19918;-69
2023/07/01 14:37:11;;;;;;;;;;;;;;;;;;6217984;28;19909;-71
2023/07/01 14:40:11;;;;;;;;;;;;;;;;;;6211240;28;19917;-71
2023/07/01 14:43:11;;;;;;;;;;;;;;;;;;6221318;28;19916;-70
2023/07/01 14:46:12;;;;;;;;;;;;;;;;;;6217577;28;19993;-71
2023/07/01 14:49:12;;;;;;;;;;;;;;;;;;6209463;28;20434;-70
2023/07/01 14:52:12;;;;;;;;;;;;;;;;;;6213788;28;20374;-70
2023/07/01 14:55:12;;;;;;;;;;;;;;;;;;6217946;28;19921;-73
2023/07/01 14:58:12;;;;;;;;;;;;;;;;;;6217176;28;19909;-69
2023/07/01 15:01:12;;;;;;;;;;;;;;;;;;6215537;28;19920;-69
2023/07/01 15:04:12;;;;;;;;;;;;;;;;;;6213675;28;19910;-70
2023/07/01 15:07:12;;;;;;;;;;;;;;;;;;6219372;28;20012;-70
2023/07/01 15:10:13;;;;;;;;;;;;;;;;;;6213947;28;20327;-68
2023/07/01 15:13:13;;;;;;;;;;;;;;;;;;6212386;28;19913;-69
2023/07/01 15:16:13;;;;;;;;;;;;;;;;;;6211265;28;19913;-70
2023/07/01 15:19:13;;;;;;;;;;;;;;;;;;6214950;28;19913;-70
2023/07/01 15:22:13;;;;;;;;;;;;;;;;;;6213188;28;19996;-70
2023/07/01 15:25:14;;;;;;;;;;;;;;;;;;6215576;28;20256;-71
2023/07/01 15:28:14;;;;;;;;;;;;;;;;;;6210626;28;20362;-70
2023/07/01 15:31:14;;;;;;;;;;;;;;;;;;6207820;28;19921;-71
2023/07/01 15:34:15;;;;;;;;;;;;;;;;;;6208543;28;20008;-69
2023/07/01 15:37:15;;;;;;;;;;;;;;;;;;6204528;28;19924;-70
2023/07/01 15:40:15;;;;;;;;;;;;;;;;;;6212703;28;19913;-70
2023/07/01 15:43:16;;;;;;;;;;;;;;;;;;6211960;28;19920;-70
2023/07/01 15:46:16;;;;;;;;;;;;;;;;;;6218768;28;20010;-72
2023/07/01 15:49:16;;;;;;;;;;;;;;;;;;6222635;28;19986;-68
2023/07/01 15:52:17;;;;;;;;;;;;;;;;;;6206543;28;20306;-70
2023/07/01 15:55:17;;;;;;;;;;;;;;;;;;6206059;28;20305;-68
2023/07/01 15:58:17;;;;;;;;;;;;;;;;;;6204798;28;19925;-68
2023/07/01 16:01:17;;;;;;;;;;;;;;;;;;6200070;28;20426;-71
2023/07/01 16:04:17;;;;;;;;;;;;;;;;;;6198669;28;19960;-70
2023/07/01 16:07:20;;;;;;;;;;;;;;;;;;6205803;28;20358;-71
2023/07/01 16:10:20;;;;;;;;;;;;;;;;;;5859504;28;10000500;-70
2023/07/01 16:13:21;;;;;;;;;;;;;;;;;;6202690;28;20421;-72
2023/07/01 16:16:21;;;;;;;;;;;;;;;;;;6202231;28;20448;-71
2023/07/01 16:19:21;;;;;;;;;;;;;;;;;;6201501;28;19913;-72
2023/07/01 16:22:21;;;;;;;;;;;;;;;;;;6199713;28;19921;-67
2023/07/01 16:25:21;;;;;;;;;;;;;;;;;;6196833;28;20063;-69
2023/07/01 16:28:21;;;;;;;;;;;;;;;;;;6200462;28;19925;-65
2023/07/01 16:31:21;;;;;;;;;;;;;;;;;;6197882;28;19917;-66
2023/07/01 16:34:21;;;;;;;;;;;;;;;;;;6199700;28;19952;-65
2023/07/01 16:37:22;;;;;;;;;;;;;;;;;;6202971;28;19968;-64
2023/07/01 16:40:22;;;;;;;;;;;;;;;;;;6204808;28;19918;-67
2023/07/01 16:43:22;;;;;;;;;;;;;;;;;;6198552;28;20033;-66
2023/07/01 16:46:22;;;;;;;;;;;;;;;;;;6204772;28;19924;-67
2023/07/01 16:49:22;;;;;;;;;;;;;;;;;;6205102;28;19920;-65
2023/07/01 16:52:22;;;;;;;;;;;;;;;;;;6198952;28;20004;-69
2023/07/01 16:55:22;;;;;;;;;;;;;;;;;;6199045;28;19944;-68
2023/07/01 16:58:22;;;;;;;;;;;;;;;;;;6201116;28;20393;-68
2023/07/01 17:01:23;;;;;;;;;;;;;;;;;;6202179;28;19933;-68
2023/07/01 17:04:23;;;;;;;;;;;;;;;;;;6200611;28;20370;-67
2023/07/01 17:07:23;;;;;;;;;;;;;;;;;;6198737;28;20235;-67
2023/07/01 17:10:23;;;;;;;;;;;;;;;;;;6205515;28;20362;-67
2023/07/01 17:13:23;;;;;;;;;;;;;;;;;;6195655;28;20289;-70
2023/07/01 17:16:24;;;;;;;;;;;;;;;;;;6206213;28;19924;-68
2023/07/01 17:19:25;;;;;;;;;;;;;;;;;;6207419;28;19990;-65
2023/07/01 17:22:25;;;;;;;;;;;;;;;;;;6204950;28;19925;-66
2023/07/01 17:25:25;;;;;;;;;;;;;;;;;;6202656;28;19921;-65
2023/07/01 17:28:25;;;;;;;;;;;;;;;;;;6204098;28;19925;-66
2023/07/01 17:31:25;;;;;;;;;;;;;;;;;;6205759;28;19921;-63
2023/07/01 17:34:25;;;;;;;;;;;;;;;;;;6203334;28;19925;-71
2023/07/01 17:37:25;;;;;;;;;;;;;;;;;;6206179;28;19918;-68
2023/07/01 17:40:26;;;;;;;;;;;;;;;;;;6204694;28;19928;-68
2023/07/01 17:43:26;;;;;;;;;;;;;;;;;;6205769;28;19921;-67
2023/07/01 17:46:26;;;;;;;;;;;;;;;;;;6203371;28;19921;-67
2023/07/01 17:49:26;;;;;;;;;;;;;;;;;;6205300;28;20449;-67
2023/07/01 17:52:26;;;;;;;;;;;;;;;;;;6202917;28;19928;-65
2023/07/01 17:55:28;;;;;;;;;;;;;;;;;;6202660;28;19956;-65
2023/07/01 17:58:28;;;;;;;;;;;;;;;;;;6203190;28;19995;-67
2023/07/01 18:01:30;;;;;;;;;;;;;;;;;;6207014;28;20016;-67
2023/07/01 18:04:31;;;;;;;;;;;;;;;;;;6202888;28;19918;-67
2023/07/01 18:07:31;;;;;;;;;;;;;;;;;;6207569;28;20289;-66
2023/07/01 18:10:31;;;;;;;;;;;;;;;;;;6200125;28;19917;-68
2023/07/01 18:13:31;;;;;;;;;;;;;;;;;;6204764;28;19925;-69
2023/07/01 18:16:31;;;;;;;;;;;;;;;;;;6203279;28;20408;-69
2023/07/01 18:19:31;;;;;;;;;;;;;;;;;;6201770;28;19928;-69
2023/07/01 18:22:31;;;;;;;;;;;;;;;;;;6213571;28;19917;-68
2023/07/01 18:25:32;;;;;;;;;;;;;;;;;;6214998;28;19917;-70
2023/07/01 18:28:32;;;;;;;;;;;;;;;;;;6206480;28;20224;-66
2023/07/01 18:31:32;;;;;;;;;;;;;;;;;;6203203;28;20201;-69
2023/07/01 18:34:32;;;;;;;;;;;;;;;;;;6202370;28;20385;-69
2023/07/01 18:37:32;;;;;;;;;;;;;;;;;;6202987;28;19918;-69
2023/07/01 18:40:32;;;;;;;;;;;;;;;;;;6203591;28;19917;-70
2023/07/01 18:43:38;;;;;;;;;;;;;;;;;;6202484;28;20443;-69
2023/07/01 18:46:39;;;;;;;;;;;;;;;;;;6200426;28;19921;-71
2023/07/01 18:49:39;;;;;;;;;;;;;;;;;;6203841;28;20409;-70
2023/07/01 18:52:39;;;;;;;;;;;;;;;;;;6199628;28;20000;-71
2023/07/01 18:55:39;;;;;;;;;;;;;;;;;;6203211;28;19971;-69
2023/07/01 18:58:39;;;;;;;;;;;;;;;;;;6202353;28;19921;-71
2023/07/01 19:01:39;;;;;;;;;;;;;;;;;;6201929;28;19980;-70
2023/07/01 19:04:40;;;;;;;;;;;;;;;;;;6201344;28;20435;-71
2023/07/01 19:07:41;;;;;;;;;;;;;;;;;;6205902;28;20438;-70
2023/07/01 19:10:41;;;;;;;;;;;;;;;;;;6201335;28;19913;-71
2023/07/01 19:13:41;;;;;;;;;;;;;;;;;;6203581;28;19921;-65
2023/07/01 19:16:41;;;;;;;;;;;;;;;;;;6205437;28;19917;-67
2023/07/01 19:19:41;;;;;;;;;;;;;;;;;;6201453;28;20119;-67
2023/07/01 19:22:42;;;;;;;;;;;;;;;;;;6198973;28;20378;-67
2023/07/01 19:25:42;;;;;;;;;;;;;;;;;;6206580;28;20333;-67
2023/07/01 19:28:42;;;;;;;;;;;;;;;;;;6213458;28;20054;-66
2023/07/01 19:31:42;;;;;;;;;;;;;;;;;;6214547;28;19917;-68
2023/07/01 19:34:42;;;;;;;;;;;;;;;;;;6203254;28;19968;-66
2023/07/01 19:37:42;;;;;;;;;;;;;;;;;;6215247;28;20319;-66
2023/07/01 19:40:42;;;;;;;;;;;;;;;;;;6198239;28;20000;-64
2023/07/01 19:43:44;;;;;;;;;;;;;;;;;;6203765;28;19914;-66
2023/07/01 19:46:44;;;;;;;;;;;;;;;;;;6201838;28;19952;-64
2023/07/01 19:49:44;;;;;;;;;;;;;;;;;;6202989;28;19920;-66
2023/07/01 19:52:45;;;;;;;;;;;;;;;;;;6206235;28;19925;-67
2023/07/01 19:55:45;;;;;;;;;;;;;;;;;;6200589;28;19924;-66
2023/07/01 19:58:45;;;;;;;;;;;;;;;;;;6203402;28;19928;-66
2023/07/01 20:01:45;;;;;;;;;;;;;;;;;;6200338;28;20523;-66
2023/07/01 20:04:45;;;;;;;;;;;;;;;;;;6202078;28;19950;-64
2023/07/01 20:07:45;;;;;;;;;;;;;;;;;;6205160;28;20382;-67
2023/07/01 20:10:45;;;;;;;;;;;;;;;;;;6209935;28;19917;-67
2023/07/01 20:13:45;;;;;;;;;;;;;;;;;;6215141;28;19925;-70
2023/07/01 20:16:46;;;;;;;;;;;;;;;;;;6206200;28;19918;-67
2023/07/01 20:19:47;;;;;;;;;;;;;;;;;;6210922;28;19917;-68
2023/07/01 20:22:47;;;;;;;;;;;;;;;;;;6208098;28;19914;-66
2023/07/01 20:25:47;;;;;;;;;;;;;;;;;;6212124;28;20019;-67
2023/07/01 20:28:47;;;;;;;;;;;;;;;;;;6214106;28;20347;-68
2023/07/01 20:31:47;;;;;;;;;;;;;;;;;;6211608;28;19917;-68